Time;durP1;ratioP1;P1;durP2;ratioP2;P2;SDS_P1;SDS_P2;PMS_P1;PMS_P2;Temp;Humidity;BMP_temperature;BMP_pressure;BME280_temperature;BME280_humidity;BME280_pressure;Samples;Min_cycle;Max_cycle;Signal;HPM_P1;HPM_P2
2022/05/22 00:01:23;;;;;;;4.57;3.03;;;;;;;17.42;60.61;100050.81;4941922;29;20038;-86
2022/05/22 00:03:50;;;;;;;5.93;3.10;;;;;;;17.45;60.55;100043.16;4922667;29;20031;-86
2022/05/22 00:06:15;;;;;;;4.93;2.83;;;;;;;17.43;60.48;100038.97;4922744;29;20031;-86
2022/05/22 00:08:40;;;;;;;5.20;3.08;;;;;;;17.36;60.89;100027.19;4922590;29;20027;-86
2022/05/22 00:11:06;;;;;;;5.20;3.00;;;;;;;17.25;60.83;100021.19;4922142;29;20031;-85
2022/05/22 00:13:31;;;;;;;4.25;3.00;;;;;;;17.30;60.73;100009.81;4922389;29;20418;-86
2022/05/22 00:18:41;;;;;;;5.15;2.97;;;;;;;17.16;61.20;100019.56;4940779;29;20042;-86
2022/05/22 00:21:06;;;;;;;3.92;3.13;;;;;;;17.12;60.91;100010.13;4922217;28;20023;-86
2022/05/22 00:23:33;;;;;;;5.07;3.10;;;;;;;17.11;61.76;100002.19;4922005;29;20070;-86
2022/05/22 00:25:58;;;;;;;4.53;2.80;;;;;;;17.14;61.83;99999.97;4922112;29;20023;-86
2022/05/22 00:28:24;;;;;;;5.68;3.08;;;;;;;17.12;61.26;99995.78;4937730;29;20382;-86
2022/05/22 00:30:50;;;;;;;6.03;2.83;;;;;;;17.16;61.66;99991.69;4937832;29;20433;-86
2022/05/22 00:33:15;;;;;;;4.60;2.97;;;;;;;17.15;61.32;99990.00;4921381;29;20031;-86
2022/05/22 00:35:41;;;;;;;5.38;3.28;;;;;;;17.13;61.26;99994.75;4922166;29;20170;-85
2022/05/22 00:38:06;;;;;;;4.28;2.88;;;;;;;17.12;61.52;99987.66;4921974;29;20543;-86
2022/05/22 00:40:32;;;;;;;5.95;3.10;;;;;;;17.04;61.67;99988.56;4921543;29;20490;-86
2022/05/22 00:42:57;;;;;;;5.63;3.30;;;;;;;17.06;61.50;99996.50;4921741;29;20023;-86
2022/05/22 00:45:23;;;;;;;6.03;3.10;;;;;;;17.00;61.73;99998.00;4921894;29;20598;-85
2022/05/22 00:47:51;;;;;;;4.75;2.67;;;;;;;17.00;61.97;99992.63;4921783;29;20038;-86
2022/05/22 00:50:17;;;;;;;7.18;3.50;;;;;;;16.94;61.50;99990.63;4938018;29;20481;-86
2022/05/22 00:52:46;;;;;;;4.25;2.83;;;;;;;16.91;62.54;99991.81;4937261;29;20031;-86
2022/05/22 00:55:14;;;;;;;5.07;3.03;;;;;;;16.88;62.25;99994.88;4921670;29;20034;-86
2022/05/22 00:57:46;;;;;;;4.93;3.30;;;;;;;16.89;61.76;99988.47;4921722;29;20042;-85
2022/05/22 01:00:15;;;;;;;4.65;3.30;;;;;;;16.98;62.00;99994.66;4921370;29;20382;-86
2022/05/22 01:05:25;;;;;;;4.93;3.20;;;;;;;16.91;62.17;100010.72;4939650;29;20050;-86
2022/05/22 01:07:50;;;;;;;4.45;3.15;;;;;;;16.92;62.31;100017.81;4952894;29;20039;-86
2022/05/22 01:10:19;;;;;;;4.25;2.83;;;;;;;16.94;61.98;100014.94;4921585;29;20489;-86
2022/05/22 01:12:45;;;;;;;4.38;3.25;;;;;;;16.86;61.34;100009.59;4921400;29;20393;-86
2022/05/22 01:15:13;;;;;;;6.25;3.10;;;;;;;16.85;61.46;100008.75;4937149;29;20027;-86
2022/05/22 01:17:40;;;;;;;5.70;3.10;;;;;;;16.78;62.23;100010.47;4937121;29;20101;-86
2022/05/22 01:20:06;;;;;;;5.15;3.55;;;;;;;16.75;62.31;100001.88;4937446;29;20024;-86
2022/05/22 01:22:31;;;;;;;5.93;3.40;;;;;;;16.72;62.75;99994.97;4921464;29;20034;-86
2022/05/22 01:24:57;;;;;;;5.32;3.10;;;;;;;16.70;62.51;100004.28;4921124;29;20054;-86
2022/05/22 01:27:23;;;;;;;5.78;3.25;;;;;;;16.67;62.67;100002.78;4920934;29;20122;-86
2022/05/22 01:29:50;;;;;;;6.30;2.90;;;;;;;16.67;62.73;99992.81;4937122;29;20051;-86
2022/05/22 01:32:15;;;;;;;6.13;3.13;;;;;;;16.66;61.84;99996.53;4921009;29;20330;-86
2022/05/22 01:34:40;;;;;;;4.32;2.80;;;;;;;16.57;62.75;99992.16;4921344;29;20094;-85
2022/05/22 01:37:06;;;;;;;5.72;2.88;;;;;;;16.62;62.41;99991.63;4937197;29;20367;-86
2022/05/22 01:39:31;;;;;;;4.72;3.17;;;;;;;16.59;62.65;99979.31;4920977;29;20386;-86
2022/05/22 01:41:56;;;;;;;5.20;3.28;;;;;;;16.61;62.21;99979.13;4921123;29;20028;-86
2022/05/22 01:44:22;;;;;;;5.05;3.35;;;;;;;16.62;62.55;99984.38;4923437;29;20023;-86
2022/05/22 01:46:47;;;;;;;4.82;3.33;;;;;;;16.61;61.97;99988.09;4925034;29;20027;-86
2022/05/22 01:49:13;;;;;;;4.93;3.10;;;;;;;16.53;62.32;99971.06;4925015;29;20540;-86
2022/05/22 01:51:40;;;;;;;4.00;3.00;;;;;;;16.54;63.46;99964.63;4940617;29;20039;-86
2022/05/22 01:54:06;;;;;;;5.43;3.20;;;;;;;16.51;63.07;99959.59;4924803;29;20035;-86
2022/05/22 01:56:33;;;;;;;4.63;2.90;;;;;;;16.46;62.53;99965.50;4940633;29;20082;-86
2022/05/22 01:58:58;;;;;;;5.13;3.13;;;;;;;16.31;63.20;99968.13;4924814;29;20469;-86
2022/05/22 02:01:24;;;;;;;6.72;3.40;;;;;;;16.29;63.08;99967.44;4940622;29;20101;-85
2022/05/22 02:03:49;;;;;;;4.18;3.10;;;;;;;16.34;63.36;99956.97;4924599;29;20028;-86
2022/05/22 02:06:15;;;;;;;4.70;3.40;;;;;;;16.50;62.85;99957.91;4924859;29;20031;-86
2022/05/22 02:08:42;;;;;;;4.68;2.97;;;;;;;16.53;63.29;99958.38;4924601;29;20039;-86
2022/05/22 02:11:08;;;;;;;5.13;3.03;;;;;;;16.49;63.54;99951.66;4940319;29;20023;-86
2022/05/22 02:13:39;;;;;;;5.78;3.20;;;;;;;16.45;63.02;99944.94;4939756;29;20105;-86
2022/05/22 02:16:05;;;;;;;4.20;3.33;;;;;;;16.44;63.21;99939.72;4924016;29;20027;-87
2022/05/22 02:18:30;;;;;;;7.75;3.40;;;;;;;16.33;63.44;99939.09;4924675;29;20023;-86
2022/05/22 02:20:56;;;;;;;4.13;3.33;;;;;;;16.25;62.41;99933.72;4924261;28;20462;-86
2022/05/22 02:23:21;;;;;;;3.97;3.03;;;;;;;16.29;62.57;99937.75;4940057;29;20023;-86
2022/05/22 02:25:52;;;;;;;3.50;2.90;;;;;;;16.26;61.72;99930.00;4940329;29;20063;-86
2022/05/22 02:28:18;;;;;;;4.70;3.13;;;;;;;16.24;61.79;99942.84;4940057;29;20027;-86
2022/05/22 02:30:48;;;;;;;4.40;2.72;;;;;;;16.18;61.79;99935.44;4924109;29;20023;-86
2022/05/22 02:33:13;;;;;;;3.78;2.88;;;;;;;16.16;62.21;99942.03;4940134;29;20535;-86
2022/05/22 02:35:39;;;;;;;5.45;3.00;;;;;;;16.13;62.05;99935.13;4939995;29;20023;-86
2022/05/22 02:38:04;;;;;;;5.22;3.50;;;;;;;16.17;62.57;99939.16;4939842;29;20050;-86
2022/05/22 02:40:31;;;;;;;4.05;3.00;;;;;;;16.19;63.41;99939.00;4923967;29;20545;-85
2022/05/22 02:42:57;;;;;;;4.22;3.00;;;;;;;16.05;62.75;99935.13;4923992;29;20027;-86
2022/05/22 02:45:25;;;;;;;4.47;3.15;;;;;;;16.04;63.46;99933.44;4923894;29;20668;-86
2022/05/22 02:47:51;;;;;;;5.30;3.25;;;;;;;16.10;62.91;99927.38;4923701;29;20123;-86
2022/05/22 02:50:19;;;;;;;5.10;3.10;;;;;;;16.19;62.12;99917.41;4923782;29;20553;-85
2022/05/22 02:52:45;;;;;;;3.78;2.78;;;;;;;16.20;63.29;99919.09;4923773;29;20045;-85
2022/05/22 02:55:10;;;;;;;4.68;2.85;;;;;;;16.31;62.35;99911.44;4938653;29;20474;-85
2022/05/22 02:57:38;;;;;;;5.13;3.13;;;;;;;16.17;62.71;99916.72;4923444;29;20027;-86
2022/05/22 03:00:06;;;;;;;5.57;3.10;;;;;;;16.08;62.78;99909.66;4939661;29;20027;-85
2022/05/22 03:02:31;;;;;;;3.45;2.88;;;;;;;16.09;63.33;99912.22;4915916;29;20031;-86
2022/05/22 03:04:57;;;;;;;4.80;2.90;;;;;;;16.10;63.59;99907.66;4923663;29;20038;-85
2022/05/22 03:07:22;;;;;;;5.40;2.67;;;;;;;16.10;62.77;99904.97;4923855;29;20043;-86
2022/05/22 03:09:48;;;;;;;4.70;3.30;;;;;;;16.04;63.76;99899.22;4939442;29;20042;-85
2022/05/22 03:12:18;;;;;;;5.03;2.95;;;;;;;16.01;63.75;99899.56;4923508;29;20140;-85
2022/05/22 03:14:49;;;;;;;3.10;2.67;;;;;;;16.00;63.78;99899.75;4923242;29;20023;-85
2022/05/22 03:17:14;;;;;;;4.43;2.72;;;;;;;16.09;62.87;99897.88;4923343;29;20031;-85
2022/05/22 03:19:40;;;;;;;5.70;3.28;;;;;;;15.99;63.38;99893.50;4929623;28;20070;-85
2022/05/22 03:22:06;;;;;;;4.05;2.72;;;;;;;15.89;62.89;99894.72;4939099;29;20028;-85
2022/05/22 03:24:32;;;;;;;6.30;3.05;;;;;;;15.88;63.65;99887.66;4932828;28;20066;-86
2022/05/22 03:27:00;;;;;;;3.20;2.67;;;;;;;15.86;63.34;99882.44;4942057;28;20026;-85
2022/05/22 03:29:25;;;;;;;7.83;3.10;;;;;;;15.89;63.34;99884.78;4942123;28;20033;-86
2022/05/22 03:31:50;;;;;;;5.78;2.53;;;;;;;15.85;63.89;99883.44;4942156;28;20030;-86
2022/05/22 03:34:16;;;;;;;3.72;2.90;;;;;;;15.85;63.97;99888.84;4938858;29;20035;-86
2022/05/22 03:36:41;;;;;;;4.35;2.60;;;;;;;15.87;63.73;99886.81;4922860;29;20038;-86
2022/05/22 03:39:07;;;;;;;5.10;2.88;;;;;;;15.82;63.76;99880.25;4938814;29;20030;-85
2022/05/22 03:41:34;;;;;;;4.60;2.60;;;;;;;15.77;63.20;99885.34;4938770;29;20023;-85
2022/05/22 03:44:00;;;;;;;5.68;3.00;;;;;;;15.73;63.09;99880.28;4938767;29;20114;-85
2022/05/22 03:46:25;;;;;;;4.13;2.70;;;;;;;15.77;63.99;99880.78;4938653;29;20085;-85
2022/05/22 03:48:50;;;;;;;3.50;2.80;;;;;;;15.76;63.49;99879.09;4922763;29;20042;-85
2022/05/22 03:51:16;;;;;;;3.38;2.70;;;;;;;15.72;63.44;99877.75;4922704;29;20026;-85
2022/05/22 03:53:41;;;;;;;3.92;3.13;;;;;;;15.76;63.82;99873.72;4922757;29;20027;-84
2022/05/22 03:56:15;;;;;;;2.85;2.63;;;;;;;15.73;64.10;99865.97;4938420;29;20034;-86
2022/05/22 03:58:41;;;;;;;3.03;2.63;;;;;;;15.70;64.16;99864.47;4938425;29;20027;-86
2022/05/22 04:01:07;;;;;;;5.93;2.53;;;;;;;15.73;63.55;99866.81;4938440;29;20536;-85
2022/05/22 04:03:34;;;;;;;3.80;2.58;;;;;;;15.74;64.17;99870.34;4938455;28;20117;-85
2022/05/22 04:06:01;;;;;;;3.95;2.97;;;;;;;15.67;64.13;99872.06;4941406;28;20040;-85
2022/05/22 04:08:27;;;;;;;4.13;2.67;;;;;;;15.71;64.57;99866.16;4941611;28;20043;-85
2022/05/22 04:10:52;;;;;;;4.55;2.75;;;;;;;15.67;63.57;99872.91;4941503;28;20138;-85
2022/05/22 04:13:17;;;;;;;3.03;2.50;;;;;;;15.67;63.67;99877.44;4957335;28;20022;-86
2022/05/22 04:15:43;;;;;;;4.10;2.80;;;;;;;15.67;63.46;99870.19;4957141;28;20077;-86
2022/05/22 04:18:08;;;;;;;4.18;2.90;;;;;;;15.69;63.47;99868.16;4957405;28;20030;-86
2022/05/22 04:20:33;;;;;;;5.53;2.83;;;;;;;15.64;63.49;99877.78;4957486;28;20038;-86
2022/05/22 04:25:57;;;;;;;3.90;2.90;;;;;;;15.64;63.31;99872.41;4960157;28;20420;-86
2022/05/22 04:28:23;;;;;;;4.25;2.67;;;;;;;15.76;63.33;99872.88;4941456;28;20030;-86
2022/05/22 04:30:49;;;;;;;5.00;2.95;;;;;;;15.69;63.43;99872.72;4941109;28;20054;-86
2022/05/22 04:33:15;;;;;;;3.35;2.45;;;;;;;15.73;63.66;99871.34;4941063;28;20081;-85
2022/05/22 04:35:40;;;;;;;3.97;2.67;;;;;;;15.63;63.14;99881.50;4956774;28;20019;-86
2022/05/22 04:38:05;;;;;;;4.05;2.95;;;;;;;15.56;63.84;99881.28;4956850;28;20230;-86
2022/05/22 04:40:31;;;;;;;4.28;3.00;;;;;;;15.59;63.51;99880.13;4940879;28;20022;-86
2022/05/22 04:42:56;;;;;;;4.05;2.78;;;;;;;15.60;63.84;99877.25;4940895;28;20025;-85
2022/05/22 04:45:22;;;;;;;4.07;2.58;;;;;;;15.57;64.47;99876.75;4956806;28;20437;-86
2022/05/22 04:47:47;;;;;;;5.35;2.90;;;;;;;15.64;64.19;99878.63;4956764;28;20054;-86
2022/05/22 04:50:14;;;;;;;6.40;2.75;;;;;;;15.65;64.62;99874.94;4940925;28;20422;-86
2022/05/22 04:52:39;;;;;;;3.92;3.00;;;;;;;15.68;64.54;99873.75;4940702;28;20033;-86
2022/05/22 04:55:06;;;;;;;5.57;3.25;;;;;;;15.72;64.95;99877.75;4956800;28;20109;-86
2022/05/22 04:57:31;;;;;;;5.85;3.55;;;;;;;15.81;65.02;99882.13;4940507;28;20038;-86
2022/05/22 04:59:57;;;;;;;5.93;3.30;;;;;;;15.82;65.50;99875.72;4956677;28;20026;-86
2022/05/22 05:02:23;;;;;;;4.35;3.10;;;;;;;15.74;64.64;99873.88;4956422;28;20113;-86
2022/05/22 05:04:50;;;;;;;3.85;3.38;;;;;;;15.81;64.77;99865.94;4940473;28;20062;-86
2022/05/22 05:07:15;;;;;;;4.85;3.58;;;;;;;15.86;65.59;99870.81;4940160;28;20469;-86
2022/05/22 05:09:40;;;;;;;7.25;3.50;;;;;;;15.77;65.04;99869.16;4956642;28;20119;-85
2022/05/22 05:12:06;;;;;;;5.43;3.67;;;;;;;15.83;65.12;99871.16;4956557;28;20070;-85
2022/05/22 05:14:32;;;;;;;6.03;3.53;;;;;;;15.86;64.86;99868.09;4956455;28;20082;-86
2022/05/22 05:16:57;;;;;;;6.95;3.92;;;;;;;15.88;65.24;99866.06;4956340;28;20030;-86
2022/05/22 05:19:22;;;;;;;5.28;3.55;;;;;;;15.90;65.02;99866.75;4955801;28;20026;-86
2022/05/22 05:21:48;;;;;;;5.68;3.33;;;;;;;15.90;65.29;99872.97;4956161;28;20082;-86
2022/05/22 05:24:13;;;;;;;6.13;3.75;;;;;;;15.91;65.21;99871.13;4956439;28;20494;-86
2022/05/22 05:26:38;;;;;;;4.95;3.75;;;;;;;15.92;65.68;99870.09;4956425;28;20031;-86
2022/05/22 05:29:04;;;;;;;4.93;3.40;;;;;;;15.97;65.81;99876.66;4973517;28;20026;-86
2022/05/22 05:31:29;;;;;;;5.75;4.00;;;;;;;15.99;65.90;99876.47;4956369;28;20389;-85
2022/05/22 05:33:54;;;;;;;5.93;3.40;;;;;;;16.05;65.82;99882.00;4955978;28;20015;-85
2022/05/22 05:36:20;;;;;;;4.80;3.47;;;;;;;16.04;66.18;99882.19;4940339;28;20031;-86
2022/05/22 05:38:45;;;;;;;5.00;3.47;;;;;;;16.01;66.43;99877.16;4939815;28;20368;-86
2022/05/22 05:41:11;;;;;;;4.90;3.45;;;;;;;16.05;66.25;99886.56;4940029;28;20481;-85
2022/05/22 05:43:37;;;;;;;5.97;3.70;;;;;;;16.08;66.63;99877.28;4940317;28;20031;-86
2022/05/22 05:46:02;;;;;;;6.18;3.80;;;;;;;16.06;66.38;99891.78;4940264;28;20346;-86
2022/05/22 05:48:28;;;;;;;5.60;4.13;;;;;;;16.04;67.17;99888.44;4939987;28;20093;-86
2022/05/22 05:50:55;;;;;;;6.63;3.70;;;;;;;16.13;67.06;99888.44;4940421;28;20054;-86
2022/05/22 05:53:20;;;;;;;5.43;3.78;;;;;;;16.19;66.94;99879.63;4940484;28;20058;-86
2022/05/22 05:55:47;;;;;;;8.40;3.45;;;;;;;16.17;66.63;99882.50;4940094;28;20058;-86
2022/05/22 05:58:12;;;;;;;5.10;3.40;;;;;;;16.19;66.62;99876.94;4940088;28;20027;-85
2022/05/22 06:00:38;;;;;;;7.53;3.55;;;;;;;16.22;66.48;99876.56;4940193;28;20027;-86
2022/05/22 06:03:03;;;;;;;7.18;3.78;;;;;;;16.27;67.36;99877.72;4955582;28;20033;-86
2022/05/22 06:05:28;;;;;;;6.82;3.75;;;;;;;16.27;67.18;99872.31;4939894;28;20058;-86
2022/05/22 06:07:54;;;;;;;5.20;3.58;;;;;;;16.31;66.79;99876.34;4939725;28;20114;-86
2022/05/22 06:10:20;;;;;;;5.70;3.67;;;;;;;16.34;66.78;99876.00;4939850;28;20084;-86
2022/05/22 06:12:46;;;;;;;4.93;3.80;;;;;;;16.28;67.32;99873.16;4939872;28;20027;-86
2022/05/22 06:15:15;;;;;;;6.50;3.90;;;;;;;16.27;67.82;99871.47;4939565;28;20140;-86
2022/05/22 06:17:46;;;;;;;5.60;3.42;;;;;;;16.27;67.31;99868.78;4939800;28;20030;-86
2022/05/22 06:20:15;;;;;;;5.72;3.75;;;;;;;16.32;68.21;99883.44;4940426;28;20544;-86
2022/05/22 06:22:42;;;;;;;5.45;3.75;;;;;;;16.49;67.65;99876.06;4955821;28;20058;-86
2022/05/22 06:25:09;;;;;;;7.47;4.43;;;;;;;16.50;67.08;99877.75;4940021;28;20074;-86
2022/05/22 06:27:34;;;;;;;6.38;3.88;;;;;;;16.42;67.34;99872.41;4936504;29;20031;-86
2022/05/22 06:30:00;;;;;;;6.72;3.90;;;;;;;16.45;66.63;99882.00;4951773;28;20062;-86
2022/05/22 06:32:25;;;;;;;6.50;4.22;;;;;;;16.40;67.68;99873.59;4943488;28;20034;-86
2022/05/22 06:34:51;;;;;;;10.10;4.10;;;;;;;16.38;67.25;99879.19;4943163;28;20477;-86
2022/05/22 06:37:21;;;;;;;4.75;4.20;;;;;;;16.38;67.39;99881.88;4943156;28;20038;-86
2022/05/22 06:39:49;;;;;;;4.82;4.07;;;;;;;16.38;67.28;99871.91;4942896;28;20376;-86
2022/05/22 06:42:36;;;;;;;5.22;3.97;;;;;;;16.42;67.61;99880.50;4943312;28;20089;-86
2022/05/22 06:45:05;;;;;;;6.70;4.28;;;;;;;16.38;68.44;99880.03;4959257;28;20035;-90
2022/05/22 06:47:31;;;;;;;6.80;4.57;;;;;;;16.43;67.30;99875.94;4961124;28;20061;-90
2022/05/22 06:49:57;;;;;;;6.15;4.50;;;;;;;16.42;67.81;99872.41;4944558;28;20026;-89
2022/05/22 06:52:23;;;;;;;4.85;4.10;;;;;;;16.51;67.41;99871.34;4944775;28;20018;-90
2022/05/22 06:54:49;;;;;;;6.80;4.38;;;;;;;16.54;66.54;99883.63;4960637;28;20030;-90
2022/05/22 06:57:20;;;;;;;7.63;4.35;;;;;;;16.61;65.92;99876.53;4944663;28;20469;-90
2022/05/22 06:59:46;;;;;;;7.07;4.00;;;;;;;16.72;65.65;99872.59;4945456;28;20073;-90
2022/05/22 07:02:11;;;;;;;6.18;3.92;;;;;;;16.59;65.69;99874.00;4960446;28;20023;-89
2022/05/22 07:04:37;;;;;;;7.47;3.85;;;;;;;16.65;66.13;99870.63;4944505;28;20030;-89
2022/05/22 07:07:02;;;;;;;7.32;4.18;;;;;;;16.62;65.48;99870.94;4944649;28;20031;-89
2022/05/22 07:09:28;;;;;;;7.07;4.32;;;;;;;16.61;65.67;99871.13;4944653;28;20481;-89
2022/05/22 07:11:54;;;;;;;5.50;3.67;;;;;;;16.64;65.09;99873.47;4944997;28;20476;-90
2022/05/22 07:14:20;;;;;;;8.35;4.40;;;;;;;16.64;64.53;99874.31;4944970;28;20034;-90
2022/05/22 07:16:45;;;;;;;6.20;3.80;;;;;;;16.62;65.07;99862.84;4960722;28;20023;-90
2022/05/22 07:19:11;;;;;;;5.45;3.80;;;;;;;16.68;65.89;99862.16;4944211;28;20165;-90
2022/05/22 07:21:37;;;;;;;5.03;3.42;;;;;;;16.82;65.52;99865.09;4944065;28;20030;-89
2022/05/22 07:24:02;;;;;;;6.65;3.72;;;;;;;16.75;64.97;99859.59;4943978;28;20050;-89
2022/05/22 07:26:29;;;;;;;4.55;3.58;;;;;;;16.72;65.50;99868.03;4944108;28;20033;-89
2022/05/22 07:28:55;;;;;;;5.50;3.33;;;;;;;16.74;64.98;99863.31;4943916;28;20026;-89
2022/05/22 07:31:23;;;;;;;8.05;3.85;;;;;;;16.76;64.45;99868.53;4944026;28;20023;-90
2022/05/22 07:50:46;;;;;;;9.55;3.67;;;;;;;16.87;63.70;99854.59;4977120;28;20492;-90
2022/05/22 07:53:12;;;;;;;6.60;3.60;;;;;;;17.03;64.83;99850.91;4939050;28;20133;-76
2022/05/22 07:55:39;;;;;;;6.80;3.80;;;;;;;17.02;65.21;99855.47;4954515;28;20548;-92
2022/05/22 07:58:04;;;;;;;6.07;3.88;;;;;;;17.03;65.12;99848.22;4943574;28;20031;-92
2022/05/22 08:00:30;;;;;;;7.75;4.22;;;;;;;17.10;65.45;99841.06;4943473;28;20019;-93
2022/05/22 08:02:56;;;;;;;7.03;4.45;;;;;;;17.08;64.35;99843.13;4943898;28;20034;-91
2022/05/22 08:05:21;;;;;;;8.32;4.25;;;;;;;17.03;64.74;99834.69;4943835;28;20049;-92
2022/05/22 08:07:47;;;;;;;6.03;3.05;;;;;;;17.17;64.54;99844.72;4944108;28;20034;-93
2022/05/22 08:10:14;;;;;;;7.03;3.67;;;;;;;17.13;63.19;99841.56;4944012;28;20034;-93
2022/05/22 08:12:43;;;;;;;9.18;4.20;;;;;;;17.07;63.99;99836.88;4943314;28;20045;-92
2022/05/22 08:15:10;;;;;;;4.88;3.28;;;;;;;17.10;63.76;99836.50;4959292;28;20058;-92
2022/05/22 08:17:38;;;;;;;6.78;3.92;;;;;;;17.09;63.42;99831.28;4943503;28;20038;-92
2022/05/22 08:20:07;;;;;;;7.70;3.80;;;;;;;17.10;64.50;99825.69;4943702;28;20030;-92
2022/05/22 08:22:33;;;;;;;8.95;4.05;;;;;;;17.15;64.60;99820.59;4942975;28;20035;-91
2022/05/22 08:25:00;;;;;;;8.30;4.53;;;;;;;17.19;64.16;99823.75;4942942;28;20531;-92
2022/05/22 08:27:27;;;;;;;7.38;4.00;;;;;;;17.18;64.15;99817.50;4943330;28;20065;-92
2022/05/22 08:29:53;;;;;;;7.13;4.00;;;;;;;17.24;63.99;99819.47;4944188;28;20030;-93
2022/05/22 08:32:18;;;;;;;7.38;3.05;;;;;;;17.33;64.32;99814.81;4943854;28;20503;-93
2022/05/22 08:34:44;;;;;;;5.15;3.50;;;;;;;17.28;63.60;99815.38;4943570;28;20027;-92
2022/05/22 08:37:09;;;;;;;5.93;3.38;;;;;;;17.30;64.01;99809.78;4943525;28;20050;-92
2022/05/22 08:39:34;;;;;;;8.18;3.67;;;;;;;17.33;63.30;99806.72;4958996;28;20030;-92
2022/05/22 08:42:09;;;;;;;4.10;2.67;;;;;;;17.29;62.08;99806.25;4959268;28;20023;-92
2022/05/22 08:44:35;;;;;;;5.43;3.08;;;;;;;17.28;62.69;99799.16;4942919;28;20484;-92
2022/05/22 08:47:06;;;;;;;4.60;2.72;;;;;;;17.35;62.28;99796.56;4943063;28;20114;-93
2022/05/22 08:49:46;;;;;;;6.18;3.03;;;;;;;17.38;62.04;99790.78;4958926;28;20457;-94
2022/05/22 08:52:17;;;;;;;5.03;2.65;;;;;;;17.29;61.57;99790.03;4942529;28;20022;-93
2022/05/22 08:54:48;;;;;;;7.43;2.97;;;;;;;17.29;60.97;99789.19;4942540;28;20026;-93
2022/05/22 09:00:22;;;;;;;6.40;2.70;;;;;;;17.22;59.38;99772.88;4961711;28;20033;-93
2022/05/22 09:03:05;;;;;;;4.63;2.63;;;;;;;17.26;61.03;99778.75;4942673;28;20027;-92
2022/05/22 09:05:32;;;;;;;4.53;2.45;;;;;;;17.36;60.83;99773.06;4942967;28;20025;-90
2022/05/22 09:08:06;;;;;;;5.18;2.22;;;;;;;17.37;61.33;99761.22;4942317;28;20377;-92
2022/05/22 09:10:50;;;;;;;3.13;1.80;;;;;;;17.54;62.54;99760.88;4942672;28;20026;-92
2022/05/22 09:13:25;;;;;;;4.47;2.05;;;;;;;17.54;61.59;99762.75;4958472;28;20054;-91
2022/05/22 09:16:11;;;;;;;4.68;2.10;;;;;;;17.53;61.79;99771.88;4942194;28;20050;-93
2022/05/22 09:18:56;;;;;;;3.65;2.03;;;;;;;17.51;62.11;99763.13;4942974;28;20026;-93
2022/05/22 09:21:32;;;;;;;5.45;2.95;;;;;;;17.48;61.51;99758.88;4943090;28;20357;-93
2022/05/22 09:24:00;;;;;;;6.47;2.95;;;;;;;17.42;60.27;99759.63;4942185;28;20043;-92
2022/05/22 09:27:00;;;;;;;5.45;2.70;;;;;;;17.39;61.24;99757.31;4942803;28;20534;-93
2022/05/22 09:29:34;;;;;;;5.13;2.00;;;;;;;17.42;60.35;99756.09;4942397;28;20039;-93
2022/05/22 09:32:04;;;;;;;3.53;1.77;;;;;;;17.49;61.76;99752.44;4958408;28;20473;-95
2022/05/22 09:34:57;;;;;;;4.00;2.42;;;;;;;17.52;60.07;99753.97;4958435;28;20081;-94
2022/05/22 09:37:34;;;;;;;4.57;2.03;;;;;;;17.46;59.35;99762.81;4959109;28;20354;-93
2022/05/22 09:40:09;;;;;;;3.78;2.22;;;;;;;17.48;59.59;99753.47;4942997;28;20027;-91
2022/05/22 09:42:37;;;;;;;7.93;2.78;;;;;;;17.45;59.44;99753.00;4958749;28;20031;-92
2022/05/22 09:45:15;;;;;;;4.70;2.13;;;;;;;17.46;59.26;99752.00;4958780;28;20094;-92
2022/05/22 09:47:48;;;;;;;3.55;2.03;;;;;;;17.58;59.64;99751.34;4942047;28;20133;-93
2022/05/22 09:50:34;;;;;;;5.50;1.60;;;;;;;17.57;59.81;99741.56;4942078;28;20413;-93
2022/05/22 09:53:35;;;;;;;2.83;1.70;;;;;;;17.67;59.30;99753.97;4942590;28;20464;-93
2022/05/22 09:56:11;;;;;;;3.10;1.80;;;;;;;17.71;59.47;99744.47;4956357;28;20046;-76
2022/05/22 09:58:53;;;;;;;2.65;1.38;;;;;;;17.70;59.14;99748.19;4971455;28;20030;-75
2022/05/22 10:01:30;;;;;;;2.53;1.58;;;;;;;17.70;55.82;99743.63;4955312;28;20034;-77
2022/05/22 10:04:27;;;;;;;4.03;1.50;;;;;;;17.60;56.19;99741.19;4971234;28;20093;-77
2022/05/22 10:07:05;;;;;;;4.10;1.55;;;;;;;17.63;55.82;99743.50;4976190;28;20057;-75
2022/05/22 10:09:43;;;;;;;3.13;1.40;;;;;;;17.72;56.68;99738.03;4975642;28;20031;-79
2022/05/22 10:12:18;;;;;;;5.00;2.30;;;;;;;17.74;56.43;99730.56;4976111;28;20031;-79
2022/05/22 10:15:01;;;;;;;3.70;2.50;;;;;;;17.76;56.67;99729.34;4976073;28;20039;-78
2022/05/22 10:18:12;;;;;;;2.83;1.50;;;;;;;17.83;57.69;99732.13;4958333;28;20039;-95
2022/05/22 10:20:58;;;;;;;3.97;1.92;;;;;;;17.76;55.23;99731.22;4950862;28;20381;-95
2022/05/22 10:23:30;;;;;;;3.92;1.90;;;;;;;17.69;54.72;99733.00;4947019;28;20038;-90
2022/05/22 10:25:55;;;;;;;4.97;2.05;;;;;;;17.71;55.65;99736.34;4961246;28;20097;-88
2022/05/22 10:28:52;;;;;;;4.35;2.03;;;;;;;17.73;55.83;99729.72;4961156;28;20421;-94
2022/05/22 10:31:30;;;;;;;3.38;1.92;;;;;;;17.79;56.28;99728.13;4921807;28;20038;-93
2022/05/22 10:34:04;;;;;;;3.53;1.58;;;;;;;17.79;56.71;99707.31;4944984;28;20057;-94
2022/05/22 10:36:44;;;;;;;3.33;1.63;;;;;;;17.79;56.53;99717.28;4945202;28;20120;-93
2022/05/22 10:39:11;;;;;;;5.03;2.25;;;;;;;17.83;54.98;99721.28;4945733;28;20029;-96
2022/05/22 10:44:53;;;;;;;3.95;1.67;;;;;;;17.85;56.29;99716.53;4976393;28;20046;-81
2022/05/22 10:47:30;;;;;;;2.08;1.50;;;;;;;17.85;55.58;99703.84;4976188;28;20045;-84
2022/05/22 10:49:56;;;;;;;3.88;1.60;;;;;;;17.89;55.56;99693.47;4958891;28;20417;-82
2022/05/22 10:52:30;;;;;;;4.57;1.42;;;;;;;17.91;56.94;99694.13;4942562;28;20034;-80
2022/05/22 10:54:55;;;;;;;1.95;1.25;;;;;;;17.93;57.03;99686.66;4960843;28;20045;-95
2022/05/22 10:57:27;;;;;;;2.13;1.35;;;;;;;17.94;56.53;99680.22;4960928;28;20465;-94
2022/05/22 10:59:52;;;;;;;4.07;1.33;;;;;;;17.98;57.81;99665.28;4944695;28;20033;-95
2022/05/22 11:02:23;;;;;;;1.88;1.35;;;;;;;18.01;57.63;99666.78;4944476;28;20026;-95
2022/05/22 11:04:49;;;;;;;1.25;1.10;;;;;;;18.04;57.97;99660.97;4944410;28;20078;-93
2022/05/22 11:07:29;;;;;;;3.83;1.45;;;;;;;18.08;57.59;99654.97;4944453;28;20078;-95
2022/05/22 11:09:56;;;;;;;4.75;1.70;;;;;;;18.04;53.60;99663.69;4944548;28;20027;-94
2022/05/22 11:12:26;;;;;;;2.50;1.60;;;;;;;18.03;52.89;99664.72;4944260;28;20027;-93
2022/05/22 11:15:05;;;;;;;2.85;1.40;;;;;;;18.02;53.77;99654.91;4936568;28;20031;-95
2022/05/22 11:17:31;;;;;;;4.28;1.85;;;;;;;18.05;51.75;99652.66;4943683;28;20031;-93
2022/05/22 11:19:57;;;;;;;4.28;1.92;;;;;;;18.06;51.36;99659.75;4943786;28;20105;-92
2022/05/22 11:22:31;;;;;;;4.15;1.90;;;;;;;18.07;52.75;99656.00;4943906;28;20018;-91
2022/05/22 11:24:56;;;;;;;3.72;1.60;;;;;;;18.13;50.46;99654.41;4943673;28;20553;-92
2022/05/22 11:27:39;;;;;;;3.33;1.70;;;;;;;18.14;50.91;99659.63;4959673;28;20066;-92
2022/05/22 11:30:08;;;;;;;3.20;1.35;;;;;;;18.13;52.13;99654.41;4942120;28;20031;-86
2022/05/22 11:32:42;;;;;;;4.07;1.75;;;;;;;18.19;51.69;99651.75;4975198;28;20030;-86
2022/05/22 11:35:25;;;;;;;39.33;4.78;;;;;;;18.24;51.35;99643.03;4958323;28;20089;-87
2022/05/22 11:38:22;;;;;;;5.07;2.03;;;;;;;18.43;52.77;99633.41;4975305;28;20034;-85
2022/05/22 11:41:04;;;;;;;5.47;2.30;;;;;;;18.55;51.88;99629.97;4955073;28;20031;-88
2022/05/22 11:43:48;;;;;;;3.10;1.70;;;;;;;18.54;52.84;99619.34;4944802;29;20065;-86
2022/05/22 11:46:45;;;;;;;4.68;2.08;;;;;;;18.52;53.73;99600.59;4933938;28;20023;-86
2022/05/22 11:49:49;;;;;;;4.90;2.05;;;;;;;18.51;53.82;99601.63;4935473;28;20023;-86
2022/05/22 11:52:55;;;;;;;4.03;1.90;;;;;;;18.56;53.52;99590.19;4938249;28;20045;-86
2022/05/22 11:55:40;;;;;;;4.38;1.83;;;;;;;18.56;53.35;99579.34;4942722;29;20038;-86
2022/05/22 11:58:31;;;;;;;2.58;1.60;;;;;;;18.55;53.49;99577.69;4954447;28;20027;-86
2022/05/22 12:01:17;;;;;;;5.07;1.67;;;;;;;18.66;55.26;99570.91;4944656;28;20135;-86
2022/05/22 12:03:46;;;;;;;2.00;1.70;;;;;;;18.67;55.18;99564.44;4941975;28;20118;-87
2022/05/22 12:06:41;;;;;;;4.03;1.95;;;;;;;18.62;53.54;99551.50;4955533;28;20051;-87
2022/05/22 12:09:17;;;;;;;3.08;1.40;;;;;;;18.68;55.39;99552.56;4952581;28;20054;-87
2022/05/22 12:12:00;;;;;;;4.00;1.60;;;;;;;18.69;54.68;99548.81;4935490;28;20114;-86
2022/05/22 12:14:44;;;;;;;5.95;2.00;;;;;;;18.80;51.98;99543.66;4952384;28;20400;-87